Time;durP1;ratioP1;P1;durP2;ratioP2;P2;SDS_P1;SDS_P2;PMS_P1;PMS_P2;Temp;Humidity;BMP_temperature;BMP_pressure;BME280_temperature;BME280_humidity;BME280_pressure;Samples;Min_cycle;Max_cycle;Signal;HPM_P1;HPM_P2
2023/07/06 00:02:24;;;;;;;3.57;3.27;;;17.70;99.90;;;;;;5013424;28;20440;-68
2023/07/06 00:04:49;;;;;;;2.73;2.50;;;17.60;99.90;;;;;;5011157;28;21001;-68
2023/07/06 00:07:21;;;;;;;3.03;2.80;;;17.60;99.90;;;;;;5008585;28;20434;-68
2023/07/06 00:09:50;;;;;;;3.20;2.90;;;17.50;99.90;;;;;;5002135;28;20222;-67
2023/07/06 00:12:18;;;;;;;3.80;2.33;;;17.30;99.90;;;;;;5008475;28;20457;-68
2023/07/06 00:14:43;;;;;;;2.80;2.50;;;17.20;99.90;;;;;;5009774;28;21012;-68
2023/07/06 00:17:12;;;;;;;3.80;3.30;;;17.10;99.90;;;;;;5008765;28;20437;-68
2023/07/06 00:19:39;;;;;;;3.03;2.83;;;17.10;99.90;;;;;;4999680;28;20175;-68
2023/07/06 00:22:05;;;;;;;2.80;2.47;;;17.10;99.90;;;;;;5010610;28;20443;-68
2023/07/06 00:24:30;;;;;;;5.90;3.20;;;17.10;99.90;;;;;;5008727;28;20491;-68
2023/07/06 00:26:56;;;;;;;2.80;2.60;;;17.10;99.90;;;;;;5002254;28;20465;-68
2023/07/06 00:29:22;;;;;;;5.67;3.70;;;17.20;99.90;;;;;;5005135;28;20193;-67
2023/07/06 00:32:04;;;;;;;3.50;3.20;;;17.10;99.90;;;;;;5008548;28;20727;-68
2023/07/06 00:34:36;;;;;;;5.20;3.40;;;17.10;99.90;;;;;;5010116;28;20730;-68
2023/07/06 00:37:03;;;;;;;4.63;2.90;;;17.00;99.90;;;;;;5003002;28;20477;-68
2023/07/06 00:39:29;;;;;;;3.07;2.87;;;17.00;99.90;;;;;;5004267;28;20486;-68
2023/07/06 00:41:54;;;;;;;3.67;3.37;;;17.00;99.90;;;;;;5002749;28;20470;-68
2023/07/06 00:45:08;;;;;;;4.83;3.50;;;17.00;99.90;;;;;;5010007;28;20175;-68
2023/07/06 00:47:44;;;;;;;2.97;2.63;;;17.00;99.90;;;;;;4986674;28;20201;-68
2023/07/06 00:50:15;;;;;;;5.87;3.73;;;17.00;99.90;;;;;;5006095;28;20442;-67
2023/07/06 00:52:48;;;;;;;4.13;2.97;;;17.00;99.90;;;;;;5008663;28;20473;-68
2023/07/06 00:55:15;;;;;;;3.67;3.20;;;16.90;99.90;;;;;;5009233;28;20452;-68
2023/07/06 00:57:42;;;;;;;3.50;3.07;;;17.00;99.90;;;;;;5008499;28;20434;-68
2023/07/06 01:00:11;;;;;;;3.67;3.37;;;16.90;99.90;;;;;;5002665;28;20449;-68
2023/07/06 01:02:40;;;;;;;4.17;3.00;;;16.90;99.90;;;;;;4999968;28;20522;-68
2023/07/06 01:05:08;;;;;;;5.20;4.80;;;16.70;99.90;;;;;;5003806;28;20847;-68
2023/07/06 01:07:36;;;;;;;3.60;3.30;;;16.60;99.90;;;;;;5009420;28;20827;-68
2023/07/06 01:10:03;;;;;;;4.67;3.37;;;16.60;99.90;;;;;;5005656;28;20524;-68
2023/07/06 01:12:29;;;;;;;3.50;3.00;;;16.60;99.90;;;;;;5007705;28;20839;-68
2023/07/06 01:14:55;;;;;;;3.80;3.50;;;16.60;99.90;;;;;;5004356;28;20437;-68
2023/07/06 01:17:33;;;;;;;4.20;3.20;;;16.60;99.90;;;;;;5007715;28;20219;-68
2023/07/06 01:20:14;;;;;;;6.10;3.53;;;16.60;99.90;;;;;;5002930;28;20190;-68
2023/07/06 01:22:51;;;;;;;5.30;3.07;;;16.70;99.90;;;;;;5003852;28;20491;-68
2023/07/06 01:25:35;;;;;;;3.47;3.13;;;16.80;99.90;;;;;;5007413;28;20453;-68
2023/07/06 01:28:01;;;;;;;3.27;2.97;;;16.80;99.90;;;;;;5004321;28;20920;-68
2023/07/06 01:30:46;;;;;;;3.17;2.80;;;16.80;99.90;;;;;;5009290;28;20603;-68
2023/07/06 01:33:18;;;;;;;4.83;3.33;;;16.70;99.90;;;;;;5004834;28;20230;-68
2023/07/06 01:36:08;;;;;;;4.70;2.90;;;16.70;99.90;;;;;;5004385;28;20604;-68
2023/07/06 01:38:34;;;;;;;3.30;3.00;;;16.70;99.90;;;;;;5002437;28;20784;-68
2023/07/06 01:41:00;;;;;;;4.20;3.80;;;16.60;99.90;;;;;;5010608;28;20433;-68
2023/07/06 01:43:27;;;;;;;3.40;3.20;;;16.50;99.90;;;;;;5008731;28;20449;-68
2023/07/06 01:45:53;;;;;;;3.47;3.20;;;16.40;99.90;;;;;;4983681;28;20539;-68
2023/07/06 01:48:20;;;;;;;3.47;3.00;;;16.40;99.90;;;;;;5007874;28;20511;-67
2023/07/06 01:50:59;;;;;;;3.40;3.10;;;16.20;99.90;;;;;;4998113;28;20469;-67
2023/07/06 01:53:33;;;;;;;3.83;3.17;;;15.90;99.90;;;;;;5004147;28;20438;-67
2023/07/06 01:56:05;;;;;;;4.67;3.50;;;15.70;99.90;;;;;;5003763;28;20452;-67
2023/07/06 01:58:43;;;;;;;3.30;3.10;;;15.50;99.90;;;;;;4999770;28;20423;-67
2023/07/06 02:01:20;;;;;;;4.47;3.60;;;15.40;99.90;;;;;;5010403;28;20430;-67
2023/07/06 02:03:50;;;;;;;3.70;3.13;;;15.40;99.90;;;;;;5007301;28;20502;-67
2023/07/06 02:06:17;;;;;;;3.97;3.10;;;15.50;99.90;;;;;;5010112;28;20473;-67
2023/07/06 02:08:42;;;;;;;4.00;3.60;;;15.60;99.90;;;;;;5009014;28;20437;-67
2023/07/06 02:11:14;;;;;;;3.60;3.30;;;15.60;99.90;;;;;;5002219;28;20438;-67
2023/07/06 02:13:40;;;;;;;3.70;3.40;;;15.60;99.90;;;;;;5009118;28;20175;-67
2023/07/06 02:16:06;;;;;;;4.07;3.10;;;15.60;99.90;;;;;;5010827;28;20467;-68
2023/07/06 02:18:33;;;;;;;3.50;3.20;;;15.60;99.90;;;;;;5004010;28;20262;-66
2023/07/06 02:21:01;;;;;;;4.13;3.80;;;15.70;99.90;;;;;;4998191;28;20601;-67
2023/07/06 02:23:27;;;;;;;3.63;3.33;;;15.70;99.90;;;;;;5011589;28;20881;-67
2023/07/06 02:25:53;;;;;;;4.00;3.57;;;15.70;99.90;;;;;;5013963;28;20551;-67
2023/07/06 02:28:21;;;;;;;4.60;2.70;;;15.70;99.90;;;;;;5014426;28;21069;-68
2023/07/06 02:30:48;;;;;;;3.07;2.83;;;15.70;99.90;;;;;;5011808;28;20477;-67
2023/07/06 02:33:16;;;;;;;8.43;4.57;;;15.60;99.90;;;;;;5005229;28;20516;-67
2023/07/06 02:35:47;;;;;;;4.17;3.70;;;15.40;99.90;;;;;;4994437;28;20503;-67
2023/07/06 02:38:18;;;;;;;4.50;3.40;;;15.20;99.90;;;;;;5004101;28;20517;-67
2023/07/06 02:40:43;;;;;;;4.70;3.00;;;15.20;99.90;;;;;;5012210;28;20480;-67
2023/07/06 02:43:09;;;;;;;4.50;3.47;;;15.30;99.90;;;;;;5008689;28;20438;-67
2023/07/06 02:45:35;;;;;;;3.90;3.60;;;15.20;99.90;;;;;;5012294;28;20250;-67
2023/07/06 02:48:01;;;;;;;4.07;3.40;;;15.20;99.90;;;;;;5013926;28;20191;-67
2023/07/06 02:50:27;;;;;;;3.50;3.20;;;15.20;99.90;;;;;;5006482;28;20488;-67
2023/07/06 02:52:53;;;;;;;5.20;3.10;;;15.30;99.90;;;;;;5012290;28;20957;-67
2023/07/06 02:55:19;;;;;;;4.30;4.00;;;15.30;99.90;;;;;;5014006;28;20496;-67
2023/07/06 02:57:44;;;;;;;3.43;3.13;;;15.20;99.90;;;;;;5011007;28;20186;-67
2023/07/06 03:00:12;;;;;;;4.20;3.10;;;15.20;99.90;;;;;;5010129;28;20190;-67
2023/07/06 03:02:38;;;;;;;3.90;3.60;;;15.30;99.90;;;;;;5006845;28;20262;-67
2023/07/06 03:05:04;;;;;;;6.53;3.40;;;15.40;99.90;;;;;;5003624;28;20544;-67
2023/07/06 03:07:33;;;;;;;3.73;2.90;;;15.30;99.90;;;;;;5005012;28;20183;-67
2023/07/06 03:10:00;;;;;;;3.70;3.20;;;15.20;99.90;;;;;;5012663;28;20889;-67
2023/07/06 03:12:25;;;;;;;3.70;3.13;;;15.30;99.90;;;;;;5011597;28;20457;-67
2023/07/06 03:14:51;;;;;;;4.17;3.73;;;15.30;99.90;;;;;;5007517;28;20444;-67
2023/07/06 03:17:16;;;;;;;5.20;3.87;;;15.30;99.90;;;;;;5009131;28;20199;-67
2023/07/06 03:19:42;;;;;;;4.00;3.60;;;15.40;99.90;;;;;;5008433;28;20633;-68
2023/07/06 03:22:08;;;;;;;3.53;3.23;;;15.20;99.90;;;;;;5007962;28;20270;-67
2023/07/06 03:24:33;;;;;;;4.07;3.03;;;15.30;99.90;;;;;;5010312;28;20186;-67
2023/07/06 03:27:01;;;;;;;3.20;3.00;;;15.30;99.90;;;;;;5012259;28;20954;-68
2023/07/06 03:29:26;;;;;;;3.87;3.57;;;15.20;99.90;;;;;;5012389;28;20182;-68
2023/07/06 03:31:53;;;;;;;4.50;3.73;;;15.10;99.90;;;;;;5010098;28;20468;-68
2023/07/06 03:34:19;;;;;;;3.70;2.83;;;15.10;99.90;;;;;;5007518;28;20191;-67
2023/07/06 03:36:45;;;;;;;4.07;3.47;;;15.10;99.90;;;;;;5012027;28;20452;-67
2023/07/06 03:39:11;;;;;;;3.73;3.43;;;15.10;99.90;;;;;;5005609;28;20433;-68
2023/07/06 03:41:38;;;;;;;3.83;3.50;;;15.00;99.90;;;;;;5011853;28;20182;-67
2023/07/06 03:44:05;;;;;;;4.40;4.00;;;15.00;99.90;;;;;;5013017;28;20908;-68
2023/07/06 03:46:34;;;;;;;4.87;3.67;;;14.90;99.90;;;;;;5006946;28;20481;-67
2023/07/06 03:49:03;;;;;;;3.90;3.60;;;15.00;99.90;;;;;;5002798;28;20465;-67
2023/07/06 03:51:30;;;;;;;3.90;3.30;;;15.00;99.90;;;;;;5005958;28;20524;-68
2023/07/06 03:53:56;;;;;;;5.47;4.00;;;14.90;99.90;;;;;;5005764;28;20430;-68
2023/07/06 03:56:27;;;;;;;3.90;3.37;;;14.80;99.90;;;;;;5011941;28;20442;-67
2023/07/06 03:58:54;;;;;;;4.30;3.60;;;14.70;99.90;;;;;;5008510;28;20477;-68
2023/07/06 04:01:20;;;;;;;4.37;3.60;;;14.80;99.90;;;;;;5001687;28;20860;-68
2023/07/06 04:03:45;;;;;;;5.43;3.37;;;15.00;99.90;;;;;;5009953;28;20480;-67
2023/07/06 04:06:11;;;;;;;3.20;3.00;;;15.00;99.90;;;;;;5006987;28;20302;-68
2023/07/06 04:08:37;;;;;;;5.27;3.70;;;15.00;99.90;;;;;;5000280;28;20183;-67
2023/07/06 04:11:04;;;;;;;4.77;4.07;;;15.00;99.90;;;;;;5008004;28;20513;-68
2023/07/06 04:13:29;;;;;;;13.80;8.37;;;15.00;99.90;;;;;;5007201;28;20437;-68
2023/07/06 04:15:55;;;;;;;6.57;5.97;;;15.00;99.90;;;;;;5009092;28;20445;-68
2023/07/06 04:18:21;;;;;;;4.90;3.80;;;15.10;99.90;;;;;;5010795;28;20549;-68
2023/07/06 04:20:48;;;;;;;5.23;3.73;;;15.10;99.90;;;;;;5007691;28;20179;-67
2023/07/06 04:23:13;;;;;;;4.10;3.70;;;15.20;99.90;;;;;;4990257;28;20515;-67
2023/07/06 04:25:39;;;;;;;5.50;4.10;;;15.30;99.90;;;;;;5009973;28;20560;-67
2023/07/06 04:28:10;;;;;;;4.13;3.63;;;15.40;99.90;;;;;;5011510;28;20233;-67
2023/07/06 04:30:40;;;;;;;5.03;4.00;;;15.60;99.90;;;;;;5006478;28;20244;-67
2023/07/06 04:33:06;;;;;;;4.90;3.70;;;15.80;99.90;;;;;;5010001;28;20454;-68
2023/07/06 04:35:32;;;;;;;6.60;5.47;;;16.00;99.90;;;;;;5011347;28;20827;-67
2023/07/06 04:37:59;;;;;;;6.63;4.50;;;16.10;99.90;;;;;;5004104;28;20433;-67
2023/07/06 04:40:26;;;;;;;5.57;4.60;;;16.30;99.90;;;;;;5005980;28;20811;-67
2023/07/06 04:42:52;;;;;;;4.73;3.87;;;16.40;99.90;;;;;;5008451;28;20485;-67
2023/07/06 04:45:19;;;;;;;5.40;4.20;;;16.50;99.90;;;;;;5007312;28;20557;-67
2023/07/06 04:47:45;;;;;;;5.73;4.40;;;16.70;99.90;;;;;;4999801;28;20837;-67
2023/07/06 04:50:17;;;;;;;5.80;3.93;;;16.70;99.90;;;;;;5002193;28;20474;-68
2023/07/06 04:52:46;;;;;;;5.40;4.90;;;16.80;99.90;;;;;;5009693;28;20986;-68
2023/07/06 04:55:12;;;;;;;7.30;5.00;;;16.90;99.90;;;;;;5002647;28;20462;-67
2023/07/06 04:57:41;;;;;;;6.67;4.10;;;17.00;99.90;;;;;;5002788;28;20430;-68
2023/07/06 05:00:18;;;;;;;6.90;4.33;;;17.10;99.90;;;;;;5003724;28;20932;-67
2023/07/06 05:02:46;;;;;;;4.70;3.87;;;17.30;99.90;;;;;;5002670;28;20438;-68
2023/07/06 05:05:12;;;;;;;5.40;4.17;;;17.40;99.90;;;;;;4993376;28;20495;-67
2023/07/06 05:07:41;;;;;;;4.80;4.40;;;17.50;99.90;;;;;;5004320;28;20481;-68
2023/07/06 05:10:08;;;;;;;6.20;4.27;;;17.70;99.90;;;;;;5003925;28;20453;-67
2023/07/06 05:12:34;;;;;;;5.33;4.17;;;17.60;99.90;;;;;;5012290;28;20499;-67
2023/07/06 05:15:00;;;;;;;5.10;4.60;;;17.40;99.90;;;;;;5011974;28;20473;-67
2023/07/06 05:17:26;;;;;;;4.63;4.23;;;17.40;99.90;;;;;;5004692;28;20433;-67
2023/07/06 05:19:51;;;;;;;4.53;4.03;;;17.40;99.90;;;;;;4993327;28;20427;-68
2023/07/06 05:22:18;;;;;;;4.20;3.83;;;17.40;99.90;;;;;;4993333;28;20203;-67
2023/07/06 05:24:44;;;;;;;6.67;4.30;;;17.40;99.90;;;;;;4993201;28;20603;-67
2023/07/06 05:27:10;;;;;;;5.17;4.67;;;17.50;99.90;;;;;;4993096;28;20423;-67
2023/07/06 05:29:36;;;;;;;4.50;4.10;;;17.80;99.90;;;;;;4997833;28;20462;-67
2023/07/06 05:32:02;;;;;;;5.17;4.67;;;17.80;99.90;;;;;;5000980;28;21052;-67
2023/07/06 05:34:27;;;;;;;4.90;4.50;;;17.80;99.90;;;;;;4993087;28;20259;-67
2023/07/06 05:36:53;;;;;;;5.67;4.57;;;17.70;99.90;;;;;;4975444;28;20291;-67
2023/07/06 05:39:18;;;;;;;4.47;3.87;;;17.90;99.90;;;;;;4992697;28;20246;-67
2023/07/06 05:41:44;;;;;;;7.93;4.07;;;18.20;99.90;;;;;;4992857;28;20199;-67
2023/07/06 05:44:09;;;;;;;4.07;3.77;;;18.60;99.90;;;;;;4995639;28;20183;-67
2023/07/06 05:46:35;;;;;;;5.30;4.00;;;19.00;99.90;;;;;;5000746;28;20253;-67
2023/07/06 05:49:00;;;;;;;4.70;3.40;;;19.30;99.90;;;;;;4992510;28;20229;-67
2023/07/06 05:51:26;;;;;;;3.80;3.50;;;19.50;99.90;;;;;;4992783;28;20597;-67
2023/07/06 05:53:51;;;;;;;5.40;3.83;;;19.60;99.90;;;;;;4992795;28;20172;-67
2023/07/06 05:56:23;;;;;;;5.10;4.00;;;19.60;99.90;;;;;;4992398;28;20196;-67
2023/07/06 05:58:49;;;;;;;4.90;4.50;;;19.70;99.90;;;;;;4992627;28;20684;-67
2023/07/06 06:01:14;;;;;;;4.87;3.90;;;19.60;99.90;;;;;;4999322;28;20423;-67
2023/07/06 06:03:40;;;;;;;5.13;3.87;;;19.70;99.90;;;;;;5000720;28;20423;-67
2023/07/06 06:06:06;;;;;;;4.83;3.50;;;19.90;99.90;;;;;;4997175;28;20211;-67
2023/07/06 06:08:32;;;;;;;4.00;3.60;;;20.10;99.90;;;;;;4998051;28;20837;-67
2023/07/06 06:11:00;;;;;;;4.30;3.37;;;20.20;99.90;;;;;;4992481;28;20418;-66
2023/07/06 06:13:27;;;;;;;4.40;3.70;;;20.40;99.90;;;;;;4999433;28;20286;-69
2023/07/06 06:15:52;;;;;;;10.27;4.20;;;20.50;99.90;;;;;;5003644;28;20458;-66
2023/07/06 06:18:18;;;;;;;5.43;3.40;;;20.70;99.90;;;;;;4999642;28;20435;-68
2023/07/06 06:20:44;;;;;;;5.60;3.67;;;20.80;99.90;;;;;;5000549;28;20168;-66
2023/07/06 06:23:10;;;;;;;5.03;3.80;;;21.00;99.90;;;;;;4992569;28;20649;-67
2023/07/06 06:25:38;;;;;;;9.57;4.90;;;21.00;99.90;;;;;;4995812;28;20187;-66
2023/07/06 06:28:05;;;;;;;4.80;3.00;;;21.30;99.90;;;;;;5007025;28;20496;-67
2023/07/06 06:30:30;;;;;;;3.70;3.30;;;21.60;99.90;;;;;;5002784;28;20438;-66
2023/07/06 06:32:57;;;;;;;4.40;3.23;;;21.80;99.90;;;;;;5011939;28;20465;-69
2023/07/06 06:35:28;;;;;;;5.07;3.13;;;21.90;99.90;;;;;;4992621;28;20199;-67
2023/07/06 06:37:54;;;;;;;8.63;3.47;;;21.90;99.90;;;;;;4992351;28;20418;-66
2023/07/06 06:40:21;;;;;;;3.03;2.73;;;22.00;99.90;;;;;;4992374;28;20407;-66
2023/07/06 06:42:48;;;;;;;3.97;3.60;;;22.20;99.50;;;;;;4993717;28;20806;-66
2023/07/06 06:45:15;;;;;;;5.67;3.40;;;22.30;98.10;;;;;;5003105;28;20449;-67
2023/07/06 06:47:41;;;;;;;4.97;3.47;;;22.40;97.40;;;;;;4993947;28;20427;-66
2023/07/06 06:50:09;;;;;;;5.90;2.73;;;22.50;96.40;;;;;;4991924;28;20431;-66
2023/07/06 06:52:35;;;;;;;4.53;2.80;;;22.60;96.30;;;;;;4992085;28;20207;-67
2023/07/06 06:55:01;;;;;;;4.70;3.03;;;22.70;95.10;;;;;;4992122;28;20438;-66
2023/07/06 06:57:29;;;;;;;3.47;2.97;;;22.80;94.00;;;;;;4996384;28;20428;-66
2023/07/06 06:59:55;;;;;;;3.20;2.87;;;22.90;93.30;;;;;;4998945;28;20859;-67
2023/07/06 07:02:22;;;;;;;8.10;3.30;;;23.00;92.60;;;;;;5000191;28;20524;-66
2023/07/06 07:04:48;;;;;;;7.23;3.00;;;23.00;92.10;;;;;;4991969;28;20183;-67
2023/07/06 07:07:13;;;;;;;4.23;2.87;;;23.20;91.50;;;;;;4992103;28;20427;-67
2023/07/06 07:09:39;;;;;;;5.57;4.20;;;23.30;91.30;;;;;;4993686;28;20446;-66
2023/07/06 07:12:05;;;;;;;3.10;2.80;;;23.30;90.70;;;;;;4995676;28;20207;-66
2023/07/06 07:14:31;;;;;;;3.63;3.33;;;23.20;91.50;;;;;;4995579;28;20164;-67
2023/07/06 07:16:56;;;;;;;3.47;2.40;;;23.40;90.90;;;;;;5003101;28;20454;-67
2023/07/06 07:19:22;;;;;;;3.60;2.87;;;23.40;89.60;;;;;;5002433;28;20865;-66
2023/07/06 07:21:49;;;;;;;3.90;2.87;;;23.30;88.20;;;;;;5014855;28;20163;-66
2023/07/06 07:24:14;;;;;;;3.40;3.10;;;23.20;88.80;;;;;;5015076;28;20163;-67
2023/07/06 07:26:40;;;;;;;3.37;3.10;;;23.30;86.80;;;;;;5015013;28;20442;-67
2023/07/06 07:29:06;;;;;;;7.07;3.23;;;23.50;86.50;;;;;;5004319;28;20561;-66
2023/07/06 07:31:32;;;;;;;4.40;3.20;;;23.20;86.70;;;;;;4995318;28;20191;-67
2023/07/06 07:33:57;;;;;;;5.40;2.97;;;23.40;85.60;;;;;;4997816;28;20431;-66
2023/07/06 07:36:23;;;;;;;5.03;4.03;;;23.60;84.70;;;;;;5002199;28;20287;-66
2023/07/06 07:38:50;;;;;;;6.67;3.37;;;23.80;84.60;;;;;;5002873;28;20179;-68
2023/07/06 07:41:20;;;;;;;3.80;2.87;;;23.80;83.70;;;;;;4995134;28;20714;-66
2023/07/06 07:43:48;;;;;;;3.27;2.97;;;24.10;82.80;;;;;;4994965;28;20414;-66
2023/07/06 07:46:15;;;;;;;3.47;2.47;;;24.30;81.40;;;;;;5000643;28;20482;-67
2023/07/06 07:48:45;;;;;;;5.97;2.80;;;24.50;79.60;;;;;;5004175;28;20447;-69
2023/07/06 07:51:12;;;;;;;3.30;3.00;;;24.70;78.10;;;;;;5000607;28;20422;-66
2023/07/06 07:53:39;;;;;;;3.20;2.90;;;25.00;76.10;;;;;;4995075;28;20794;-67
2023/07/06 07:56:06;;;;;;;3.10;2.80;;;24.90;75.30;;;;;;4994780;28;20434;-67
2023/07/06 07:58:33;;;;;;;3.70;3.40;;;24.70;76.70;;;;;;4994322;28;20474;-67
2023/07/06 08:01:01;;;;;;;3.67;3.37;;;25.10;75.40;;;;;;4994758;28;20426;-67
2023/07/06 08:03:27;;;;;;;6.10;2.53;;;25.30;74.00;;;;;;4998749;28;20939;-68
2023/07/06 08:06:02;;;;;;;3.80;3.37;;;25.80;72.10;;;;;;4984195;28;20505;-67
2023/07/06 08:08:30;;;;;;;3.67;3.37;;;26.20;69.90;;;;;;5005655;28;20433;-69
2023/07/06 08:11:00;;;;;;;4.87;3.00;;;26.00;69.60;;;;;;4994673;28;20481;-66
2023/07/06 08:13:26;;;;;;;3.10;2.80;;;26.20;68.10;;;;;;4994331;28;20505;-66
2023/07/06 08:15:51;;;;;;;4.00;2.90;;;26.30;67.20;;;;;;4994367;28;20469;-66
2023/07/06 08:18:17;;;;;;;3.93;3.50;;;26.60;66.40;;;;;;4994296;28;20695;-67
2023/07/06 08:20:47;;;;;;;3.83;3.40;;;26.70;65.50;;;;;;5001327;28;20189;-66
2023/07/06 08:23:13;;;;;;;5.30;2.90;;;26.70;65.10;;;;;;4985590;28;20184;-67
2023/07/06 08:25:40;;;;;;;2.87;2.67;;;26.40;64.30;;;;;;4994280;28;20970;-66
2023/07/06 08:28:10;;;;;;;6.37;3.63;;;26.30;66.50;;;;;;4994187;28;20176;-66
2023/07/06 08:30:38;;;;;;;3.40;2.70;;;26.80;65.00;;;;;;4994033;28;20505;-66
2023/07/06 08:33:04;;;;;;;3.53;3.23;;;27.00;63.30;;;;;;4993891;28;20462;-69
2023/07/06 08:35:30;;;;;;;3.70;2.97;;;27.40;63.30;;;;;;4999050;28;20459;-68
2023/07/06 08:37:57;;;;;;;3.33;3.03;;;27.80;61.30;;;;;;5001691;28;20418;-67
2023/07/06 08:40:26;;;;;;;4.23;3.30;;;27.60;59.40;;;;;;4993777;28;20423;-67
2023/07/06 08:42:55;;;;;;;3.13;2.87;;;26.80;60.30;;;;;;4993842;28;20952;-69
2023/07/06 08:45:23;;;;;;;3.57;3.30;;;26.90;61.00;;;;;;4994034;28;20446;-67
2023/07/06 08:47:51;;;;;;;6.30;3.27;;;26.90;60.50;;;;;;4994023;28;20422;-66
2023/07/06 08:50:24;;;;;;;5.17;4.03;;;26.60;61.60;;;;;;4993933;28;20476;-66
2023/07/06 08:52:50;;;;;;;3.50;3.20;;;26.10;62.00;;;;;;5002354;28;20458;-66
2023/07/06 08:55:17;;;;;;;3.40;3.10;;;26.30;63.10;;;;;;4993594;28;20970;-67
2023/07/06 08:57:49;;;;;;;3.30;3.10;;;26.40;62.70;;;;;;4993838;28;20454;-66
2023/07/06 09:00:22;;;;;;;3.73;3.43;;;26.30;61.00;;;;;;4993699;28;20780;-66
2023/07/06 09:02:49;;;;;;;4.10;3.27;;;26.30;61.70;;;;;;4993651;28;20426;-67
2023/07/06 09:05:16;;;;;;;4.80;4.27;;;26.50;61.30;;;;;;4993438;28;20466;-67
2023/07/06 09:07:43;;;;;;;4.93;3.20;;;26.90;60.20;;;;;;4998910;28;20444;-66
2023/07/06 09:10:13;;;;;;;4.90;3.90;;;27.40;59.70;;;;;;5001182;28;20862;-66
2023/07/06 09:12:39;;;;;;;4.53;3.27;;;27.50;58.60;;;;;;4993205;28;20462;-66
2023/07/06 09:15:08;;;;;;;3.40;3.10;;;27.50;58.50;;;;;;4993327;28;20438;-66
2023/07/06 09:17:35;;;;;;;4.10;3.47;;;27.60;57.90;;;;;;4993282;28;20492;-66
2023/07/06 09:20:05;;;;;;;6.43;3.60;;;27.90;56.80;;;;;;4992930;28;20482;-67
2023/07/06 09:22:30;;;;;;;3.27;3.07;;;28.00;56.90;;;;;;4995909;28;20498;-66
2023/07/06 09:25:01;;;;;;;4.03;3.20;;;27.80;56.70;;;;;;5000810;28;20426;-66
2023/07/06 09:27:26;;;;;;;6.53;3.43;;;27.50;56.80;;;;;;4993171;28;20254;-67
2023/07/06 09:29:57;;;;;;;3.57;3.27;;;27.30;56.90;;;;;;5000190;28;20522;-66
2023/07/06 09:32:23;;;;;;;4.23;3.00;;;27.20;56.70;;;;;;5001134;28;20282;-68
2023/07/06 09:34:55;;;;;;;3.90;3.50;;;27.10;56.70;;;;;;5005305;28;20426;-69
2023/07/06 09:37:21;;;;;;;5.50;3.30;;;26.90;56.70;;;;;;5007510;28;20418;-71
2023/07/06 09:40:05;;;;;;;4.97;3.47;;;26.60;56.70;;;;;;5002660;28;20461;-66
2023/07/06 09:42:32;;;;;;;3.50;3.20;;;26.70;57.20;;;;;;5012408;28;20441;-66
2023/07/06 09:45:00;;;;;;;4.10;3.80;;;26.70;57.20;;;;;;5012280;28;20481;-66
2023/07/06 09:47:27;;;;;;;5.37;3.03;;;26.70;56.30;;;;;;5012435;28;20768;-68
2023/07/06 09:49:56;;;;;;;3.97;3.57;;;27.20;56.10;;;;;;5012320;28;20796;-66
2023/07/06 09:52:22;;;;;;;3.70;3.40;;;27.60;55.40;;;;;;5012336;28;20462;-66
2023/07/06 09:55:12;;;;;;;4.80;3.63;;;27.90;54.00;;;;;;5010276;28;20443;-67
2023/07/06 09:57:40;;;;;;;4.40;4.00;;;27.70;54.30;;;;;;5002748;28;20620;-66
2023/07/06 10:00:14;;;;;;;5.03;3.93;;;26.80;54.10;;;;;;4992152;28;20418;-68
2023/07/06 10:03:00;;;;;;;3.33;3.13;;;26.40;54.20;;;;;;4992611;28;20430;-70
2023/07/06 10:05:42;;;;;;;4.57;3.73;;;26.40;55.20;;;;;;4964615;28;20833;-68
2023/07/06 10:08:11;;;;;;;3.97;3.57;;;26.40;55.10;;;;;;4992540;28;20469;-66
2023/07/06 10:11:09;;;;;;;5.43;3.90;;;26.30;55.30;;;;;;4992735;28;20919;-66
2023/07/06 10:14:01;;;;;;;4.87;3.30;;;26.00;55.10;;;;;;4996693;28;20515;-68
2023/07/06 10:16:32;;;;;;;4.40;3.20;;;26.10;55.70;;;;;;4994263;28;20435;-66
2023/07/06 10:19:17;;;;;;;2.90;2.70;;;27.20;54.40;;;;;;5002519;28;20439;-66
2023/07/06 10:21:50;;;;;;;3.23;2.93;;;29.10;51.30;;;;;;4975188;28;20994;-66
2023/07/06 10:24:40;;;;;;;4.77;3.50;;;30.50;49.60;;;;;;4992504;28;20446;-66
2023/07/06 10:27:13;;;;;;;4.50;4.10;;;32.00;46.80;;;;;;5006594;28;20462;-69
2023/07/06 10:29:50;;;;;;;4.73;3.50;;;33.40;43.20;;;;;;4999490;28;20431;-68
2023/07/06 10:32:24;;;;;;;3.53;3.23;;;34.50;40.80;;;;;;5002946;28;20592;-68
2023/07/06 10:35:07;;;;;;;3.67;3.37;;;34.90;38.10;;;;;;5000802;28;20414;-68
2023/07/06 10:37:35;;;;;;;5.30;3.67;;;36.10;36.80;;;;;;4992352;28;20450;-69
2023/07/06 10:40:37;;;;;;;3.47;3.17;;;36.50;35.00;;;;;;4991970;28;20423;-69
2023/07/06 10:43:15;;;;;;;5.20;3.10;;;35.50;34.50;;;;;;4988678;28;20561;-69
2023/07/06 10:45:48;;;;;;;5.33;3.90;;;35.10;34.80;;;;;;5000953;28;20450;-70
2023/07/06 10:48:30;;;;;;;3.70;2.97;;;33.80;35.80;;;;;;5011914;28;20808;-69
2023/07/06 10:51:17;;;;;;;3.90;3.50;;;32.30;37.60;;;;;;5015572;28;20930;-69
2023/07/06 10:54:03;;;;;;;4.10;3.70;;;31.20;39.10;;;;;;5015622;28;20469;-69
2023/07/06 10:56:34;;;;;;;3.57;3.27;;;31.50;39.40;;;;;;4995781;28;20452;-69
2023/07/06 10:59:01;;;;;;;3.10;2.80;;;32.40;39.00;;;;;;5012416;28;21058;-69
2023/07/06 11:01:39;;;;;;;4.17;3.87;;;32.70;37.50;;;;;;5007268;28;20911;-69
2023/07/06 11:04:41;;;;;;;4.00;3.20;;;32.30;37.60;;;;;;4995877;28;20903;-68
2023/07/06 11:07:09;;;;;;;4.90;4.50;;;30.90;38.40;;;;;;4995800;28;20492;-69
2023/07/06 11:09:49;;;;;;;4.40;3.93;;;30.40;39.10;;;;;;5004481;28;20426;-69
2023/07/06 11:12:18;;;;;;;10.30;3.77;;;30.60;39.10;;;;;;5003970;28;20826;-69
2023/07/06 11:14:44;;;;;;;7.70;3.57;;;31.70;38.30;;;;;;5013707;28;20434;-70
2023/07/06 11:17:36;;;;;;;4.40;4.00;;;33.50;36.20;;;;;;5015092;28;20449;-70
2023/07/06 11:20:23;;;;;;;3.90;3.50;;;34.70;34.90;;;;;;5014789;28;20798;-69
2023/07/06 11:23:00;;;;;;;4.23;3.93;;;33.40;34.80;;;;;;5014288;28;20438;-69
2023/07/06 11:25:29;;;;;;;4.30;3.93;;;32.70;35.80;;;;;;5009365;28;20456;-68
2023/07/06 11:28:05;;;;;;;4.00;3.70;;;33.80;34.40;;;;;;5003331;28;20938;-69
2023/07/06 11:30:43;;;;;;;4.80;4.07;;;34.90;33.60;;;;;;4995297;28;20418;-68
2023/07/06 11:33:18;;;;;;;3.40;3.10;;;35.50;32.60;;;;;;5001048;28;20458;-69
2023/07/06 11:36:16;;;;;;;3.50;3.30;;;35.50;31.70;;;;;;5000677;28;20461;-69
2023/07/06 11:39:12;;;;;;;4.00;3.57;;;34.50;31.90;;;;;;5009443;28;20434;-69
2023/07/06 11:41:49;;;;;;;4.67;3.80;;;32.80;33.20;;;;;;5004449;28;20451;-67
2023/07/06 11:44:46;;;;;;;3.87;3.57;;;30.50;34.40;;;;;;4994752;28;20923;-69
2023/07/06 11:47:30;;;;;;;4.43;3.43;;;30.50;36.00;;;;;;4994902;28;20411;-68
2023/07/06 11:49:59;;;;;;;9.10;3.77;;;30.70;37.80;;;;;;4994786;28;20421;-68
2023/07/06 11:52:29;;;;;;;5.10;3.60;;;31.40;37.90;;;;;;5001802;28;20458;-69
2023/07/06 11:55:06;;;;;;;4.80;3.40;;;32.60;36.90;;;;;;5005979;28;20488;-68
2023/07/06 11:57:44;;;;;;;4.50;2.87;;;32.70;35.80;;;;;;5002784;28;20657;-68
2023/07/06 12:03:05;;;;;;;3.60;3.40;;;31.10;37.20;;;;;;4994596;28;20792;-68
2023/07/06 12:05:45;;;;;;;6.03;3.50;;;30.10;37.60;;;;;;4978265;28;20457;-69
2023/07/06 12:08:19;;;;;;;3.97;3.67;;;31.10;38.30;;;;;;4997373;28;20438;-69
2023/07/06 12:10:50;;;;;;;4.93;4.00;;;33.90;35.20;;;;;;5002765;28;20457;-68
2023/07/06 12:13:25;;;;;;;5.13;3.10;;;36.30;33.50;;;;;;5002406;28;21033;-69
2023/07/06 12:15:54;;;;;;;4.23;3.10;;;38.90;28.90;;;;;;4994698;28;20434;-68
2023/07/06 12:18:20;;;;;;;3.77;3.00;;;40.60;27.90;;;;;;4994123;28;20540;-68
2023/07/06 12:20:51;;;;;;;4.50;3.20;;;40.40;28.40;;;;;;4994432;28;20451;-68
2023/07/06 12:23:16;;;;;;;4.67;3.70;;;40.40;28.20;;;;;;5004930;28;20187;-68
2023/07/06 12:25:42;;;;;;;3.90;3.60;;;40.00;27.80;;;;;;5004795;28;20485;-70
2023/07/06 12:28:12;;;;;;;5.00;3.53;;;41.20;28.20;;;;;;4982837;28;20214;-68
2023/07/06 12:30:39;;;;;;;4.60;3.67;;;43.20;29.40;;;;;;4994246;28;20506;-69
2023/07/06 12:33:08;;;;;;;3.50;3.30;;;44.10;28.50;;;;;;4994175;28;20463;-70
2023/07/06 12:35:35;;;;;;;3.77;3.47;;;42.70;27.70;;;;;;4994123;28;20442;-68
2023/07/06 12:38:09;;;;;;;7.10;4.00;;;39.80;28.20;;;;;;4993962;28;20514;-68
2023/07/06 12:40:35;;;;;;;3.57;3.23;;;41.00;28.60;;;;;;4994354;28;20433;-69
2023/07/06 12:43:03;;;;;;;3.43;3.23;;;39.60;28.20;;;;;;5007561;28;20435;-68
2023/07/06 12:45:30;;;;;;;3.83;3.40;;;37.40;29.20;;;;;;5005590;28;20210;-68
2023/07/06 12:47:58;;;;;;;3.90;3.57;;;35.70;30.00;;;;;;4993528;28;20955;-69
2023/07/06 12:50:29;;;;;;;3.97;3.57;;;35.10;30.10;;;;;;4993560;28;20422;-69
2023/07/06 12:53:05;;;;;;;3.70;3.40;;;34.60;31.10;;;;;;4993425;28;20987;-69
2023/07/06 12:55:34;;;;;;;3.20;2.90;;;34.20;31.20;;;;;;5007038;28;20483;-69
2023/07/06 12:58:17;;;;;;;3.73;3.43;;;34.70;31.20;;;;;;4999801;28;20423;-68
2023/07/06 13:00:47;;;;;;;3.60;3.30;;;34.80;31.00;;;;;;4993643;28;20411;-69
2023/07/06 13:03:13;;;;;;;3.37;3.07;;;35.40;30.90;;;;;;4993469;28;20447;-68